createdAt,value
2023-02-11T05:15:33.028Z,0.00
2023-02-11T05:16:33.042Z,0.00
2023-02-11T05:17:33.017Z,0.00
2023-02-11T05:18:32.996Z,0.00
2023-02-11T05:19:32.980Z,0.00
2023-02-11T05:20:32.953Z,0.00
2023-02-11T05:21:32.957Z,0.00
2023-02-11T05:22:32.934Z,0.00
2023-02-11T05:23:32.924Z,0.00
2023-02-11T05:24:32.916Z,0.00
2023-02-11T05:25:32.935Z,0.00
2023-02-11T05:26:32.892Z,0.00
2023-02-11T05:27:32.886Z,0.00
2023-02-11T05:28:32.930Z,0.00
2023-02-11T05:29:32.852Z,0.00
2023-02-11T05:30:32.871Z,0.00
2023-02-11T05:31:32.829Z,0.00
2023-02-11T05:32:32.813Z,0.00
2023-02-11T05:33:32.794Z,0.00
2023-02-11T05:34:32.781Z,0.00
2023-02-11T05:35:32.773Z,0.00
2023-02-11T05:36:33.572Z,0.00
2023-02-11T05:37:32.778Z,0.00
2023-02-11T05:38:32.721Z,0.00
2023-02-11T05:39:32.722Z,0.00
2023-02-11T05:40:32.743Z,0.00
2023-02-11T05:41:32.700Z,0.00
2023-02-11T05:42:32.686Z,0.00
2023-02-11T05:43:32.672Z,0.00
2023-02-11T05:44:32.659Z,0.00
2023-02-11T05:45:32.640Z,0.00
2023-02-11T05:46:32.701Z,0.00
2023-02-11T05:47:32.621Z,0.00
2023-02-11T05:48:32.602Z,0.00
2023-02-11T05:49:32.589Z,0.00
2023-02-11T05:50:32.573Z,0.00
2023-02-11T05:51:32.581Z,0.00
2023-02-11T05:52:32.547Z,0.00
2023-02-11T05:53:32.541Z,0.00
2023-02-11T05:54:32.521Z,0.00
2023-02-11T05:55:32.519Z,0.00
2023-02-11T05:56:32.540Z,0.00
2023-02-11T05:57:32.491Z,0.00
2023-02-11T05:58:32.469Z,0.00
2023-02-11T05:59:32.459Z,0.00
2023-02-11T06:00:32.458Z,0.00
2023-02-11T06:01:32.438Z,0.00
2023-02-11T06:02:32.634Z,0.00
2023-02-11T06:03:32.446Z,0.00
2023-02-11T06:04:32.394Z,0.00
2023-02-11T06:05:32.384Z,0.00
2023-02-11T06:06:32.374Z,0.00
2023-02-11T06:07:32.377Z,0.00
2023-02-11T06:08:32.335Z,0.00
2023-02-11T06:09:32.344Z,0.00
2023-02-11T06:10:32.316Z,0.00
2023-02-11T06:11:32.306Z,0.00
2023-02-11T06:12:32.311Z,0.00
2023-02-11T06:13:32.290Z,0.00
2023-02-11T06:14:32.276Z,0.00
2023-02-11T06:15:32.256Z,0.00
2023-02-11T06:16:32.317Z,0.00
2023-02-11T06:17:32.253Z,0.00
2023-02-11T06:18:32.213Z,0.00
2023-02-11T06:19:32.221Z,0.00
2023-02-11T06:20:32.193Z,0.00
2023-02-11T06:21:42.944Z,0.00
2023-02-11T06:22:34.852Z,0.00
2023-02-11T06:23:32.168Z,0.00
2023-02-11T06:24:58.660Z,0.00
2023-02-11T06:25:33.123Z,0.00
2023-02-11T06:26:32.116Z,0.00
2023-02-11T06:27:32.120Z,0.00
2023-02-11T06:28:32.135Z,0.00
2023-02-11T06:29:32.103Z,4.00
2023-02-11T06:30:32.062Z,0.00
2023-02-11T06:31:32.136Z,0.00
2023-02-11T06:32:47.632Z,4.00
2023-02-11T06:33:33.021Z,0.00
2023-02-11T06:34:32.002Z,0.00
2023-02-11T06:35:31.993Z,4.00
2023-02-11T06:36:31.982Z,4.00
2023-02-11T06:37:31.980Z,4.00
2023-02-11T06:38:31.954Z,4.00
2023-02-11T06:39:31.953Z,8.00
2023-02-11T06:40:31.934Z,4.00
2023-02-11T06:41:31.922Z,8.00
2023-02-11T06:42:31.920Z,8.00
2023-02-11T06:43:31.892Z,8.00
2023-02-11T06:44:31.881Z,8.00
2023-02-11T06:45:31.866Z,12.00
2023-02-11T06:46:31.904Z,12.00
2023-02-11T06:47:31.864Z,12.00
2023-02-11T06:48:31.820Z,16.00
2023-02-11T06:49:31.820Z,16.00
2023-02-11T06:50:31.796Z,20.00
2023-02-11T06:51:31.793Z,20.00
2023-02-11T06:52:31.791Z,20.00
2023-02-11T06:53:31.759Z,28.00
2023-02-11T06:54:31.744Z,28.00
2023-02-11T06:55:31.748Z,32.00
2023-02-11T06:56:31.709Z,36.00
2023-02-11T06:57:31.732Z,40.00
2023-02-11T06:58:31.689Z,36.00
2023-02-11T06:59:31.678Z,40.00
2023-02-11T07:00:31.738Z,40.00
2023-02-11T07:01:31.675Z,40.00
2023-02-11T07:02:31.664Z,44.00
2023-02-11T07:03:31.635Z,48.00
2023-02-11T07:04:31.627Z,52.00
2023-02-11T07:05:31.601Z,48.00
2023-02-11T07:06:31.596Z,48.00
2023-02-11T07:07:34.000Z,52.00
2023-02-11T07:08:31.556Z,56.00
2023-02-11T07:09:31.548Z,64.00
2023-02-11T07:10:31.537Z,60.00
2023-02-11T07:11:31.552Z,64.00
2023-02-11T07:12:31.524Z,64.00
2023-02-11T07:13:31.497Z,68.00
2023-02-11T07:14:31.476Z,76.00
2023-02-11T07:15:31.478Z,76.00
2023-02-11T07:16:31.474Z,80.00
2023-02-11T07:17:31.458Z,80.00
2023-02-11T07:18:31.425Z,84.00
2023-02-11T07:19:31.424Z,92.00
2023-02-11T07:20:31.397Z,96.00
2023-02-11T07:21:31.395Z,92.00
2023-02-11T07:22:31.445Z,88.00
2023-02-11T07:23:31.370Z,96.00
2023-02-11T07:24:31.345Z,104.00
2023-02-11T07:25:31.348Z,104.00
2023-02-11T07:26:31.326Z,104.00
2023-02-11T07:27:31.323Z,104.00
2023-02-11T07:28:31.383Z,116.00
2023-02-11T07:29:31.282Z,124.00
2023-02-11T07:30:31.278Z,136.00
2023-02-11T07:31:31.427Z,152.00
2023-02-11T07:32:31.255Z,160.00
2023-02-11T07:33:31.232Z,172.00
2023-02-11T07:34:31.245Z,176.00
2023-02-11T07:35:31.220Z,180.00
2023-02-11T07:36:31.192Z,172.00
2023-02-11T07:37:31.244Z,172.00
2023-02-11T07:38:31.170Z,176.00
2023-02-11T07:39:31.161Z,180.00
2023-02-11T07:40:31.144Z,192.00
2023-02-11T07:41:31.132Z,216.00
2023-02-11T07:42:31.133Z,224.00
2023-02-11T07:43:31.101Z,224.00
2023-02-11T07:44:31.080Z,228.00
2023-02-11T07:45:31.073Z,228.00
2023-02-11T07:46:31.111Z,248.00
2023-02-11T07:47:31.069Z,256.00
2023-02-11T07:48:31.041Z,248.00
2023-02-11T07:49:31.019Z,276.00
2023-02-11T07:50:30.998Z,288.00
2023-02-11T07:51:31.011Z,296.00
2023-02-11T07:52:30.976Z,308.00
2023-02-11T07:53:30.981Z,320.00
2023-02-11T07:54:30.953Z,348.00
2023-02-11T07:55:30.937Z,368.00
2023-02-11T07:56:30.918Z,396.00
2023-02-11T07:57:30.917Z,416.00
2023-02-11T07:58:30.909Z,420.00
2023-02-11T07:59:30.894Z,428.00
2023-02-11T08:00:30.876Z,448.00
2023-02-11T08:01:30.892Z,444.00
2023-02-11T08:02:30.901Z,444.00
2023-02-11T08:03:30.856Z,420.00
2023-02-11T08:04:30.817Z,412.00
2023-02-11T08:05:30.816Z,428.00
2023-02-11T08:06:30.796Z,436.00
2023-02-11T08:07:30.785Z,436.00
2023-02-11T08:08:30.776Z,452.00
2023-02-11T08:09:37.823Z,468.00
2023-02-11T08:10:30.770Z,460.00
2023-02-11T08:11:31.423Z,448.00
2023-02-11T08:12:30.721Z,456.00
2023-02-11T08:13:30.723Z,476.00
2023-02-11T08:14:30.690Z,484.00
2023-02-11T08:15:30.684Z,520.00
2023-02-11T08:16:30.733Z,544.00
2023-02-11T08:17:30.651Z,572.00
2023-02-11T08:18:30.643Z,576.00
2023-02-11T08:19:30.991Z,576.00
2023-02-11T08:20:30.610Z,596.00
2023-02-11T08:21:30.599Z,608.00
2023-02-11T08:22:30.582Z,628.00
2023-02-11T08:23:30.588Z,636.00
2023-02-11T08:24:30.558Z,656.00
2023-02-11T08:25:30.546Z,660.00
2023-02-11T08:26:30.527Z,648.00
2023-02-11T08:27:30.518Z,620.00
2023-02-11T08:28:30.586Z,620.00
2023-02-11T08:29:30.519Z,624.00
2023-02-11T08:30:30.486Z,616.00
2023-02-11T08:31:30.575Z,656.00
2023-02-11T08:32:30.456Z,716.00
2023-02-11T08:33:30.446Z,692.00
2023-02-11T08:34:30.423Z,692.00
2023-02-11T08:35:30.414Z,684.00
2023-02-11T08:36:30.413Z,724.00
2023-02-11T08:37:33.001Z,768.00
2023-02-11T08:38:30.402Z,796.00
2023-02-11T08:39:30.365Z,812.00
2023-02-11T08:40:30.350Z,852.00
2023-02-11T08:41:30.336Z,904.00
2023-02-11T08:42:30.313Z,900.00
2023-02-11T08:43:30.326Z,904.00
2023-02-11T08:44:30.286Z,936.00
2023-02-11T08:45:30.304Z,896.00
2023-02-11T08:46:30.340Z,900.00
2023-02-11T08:47:30.253Z,976.00
2023-02-11T08:48:30.254Z,1000.00
2023-02-11T08:49:30.242Z,1060.00
2023-02-11T08:50:30.221Z,1096.00
2023-02-11T08:51:30.204Z,1104.00
2023-02-11T08:52:30.188Z,1076.00
2023-02-11T08:53:30.173Z,1096.00
2023-02-11T08:54:30.173Z,1128.00
2023-02-11T08:55:30.152Z,1132.00
2023-02-11T08:56:30.132Z,1152.00
2023-02-11T08:57:30.127Z,1176.00
2023-02-11T08:58:30.102Z,1108.00
2023-02-11T08:59:30.102Z,1088.00
2023-02-11T09:00:30.082Z,1128.00
2023-02-11T09:01:30.114Z,1100.00
2023-02-11T09:02:30.100Z,1124.00
2023-02-11T09:03:30.041Z,1120.00
2023-02-11T09:04:30.054Z,1084.00
2023-02-11T09:05:30.011Z,1060.00
2023-02-11T09:06:30.009Z,1076.00
2023-02-11T09:07:29.993Z,1108.00
2023-02-11T09:08:29.980Z,1108.00
2023-02-11T09:09:29.978Z,1096.00
2023-02-11T09:10:29.953Z,1072.00
2023-02-11T09:11:29.959Z,1088.00
2023-02-11T09:12:29.933Z,1108.00
2023-02-11T09:13:29.918Z,1132.00
2023-02-11T09:14:29.920Z,1220.00
2023-02-11T09:15:29.888Z,1252.00
2023-02-11T09:16:29.924Z,1260.00
2023-02-11T09:17:29.858Z,1324.00
2023-02-11T09:18:29.862Z,1288.00
2023-02-11T09:19:29.839Z,1252.00
2023-02-11T09:20:29.829Z,1204.00
2023-02-11T09:21:29.825Z,1172.00
2023-02-11T09:22:29.799Z,1148.00
2023-02-11T09:23:29.778Z,1132.00
2023-02-11T09:24:29.798Z,1156.00
2023-02-11T09:25:29.758Z,1212.00
2023-02-11T09:26:29.754Z,1128.00
2023-02-11T09:27:29.757Z,1024.00
2023-02-11T09:28:29.776Z,1056.00
2023-02-11T09:29:29.749Z,1272.00
2023-02-11T09:30:29.814Z,1384.00
2023-02-11T09:31:29.807Z,1344.00
2023-02-11T09:32:29.668Z,1316.00
2023-02-11T09:33:29.668Z,1364.00
2023-02-11T09:34:29.659Z,1380.00
2023-02-11T09:35:29.627Z,1428.00
2023-02-11T09:36:29.626Z,1404.00
2023-02-11T09:37:29.607Z,1312.00
2023-02-11T09:38:29.614Z,1484.00
2023-02-11T09:39:29.589Z,1504.00
2023-02-11T09:40:29.589Z,1388.00
2023-02-11T09:41:29.547Z,1372.00
2023-02-11T09:42:29.549Z,1344.00
2023-02-11T09:43:29.517Z,1292.00
2023-02-11T09:44:29.549Z,1220.00
2023-02-11T09:45:29.498Z,1092.00
2023-02-11T09:46:29.564Z,1040.00
2023-02-11T09:47:29.472Z,1108.00
2023-02-11T09:48:29.469Z,1204.00
2023-02-11T09:49:29.458Z,1104.00
2023-02-11T09:50:29.461Z,1052.00
2023-02-11T09:51:29.437Z,1048.00
2023-02-11T09:52:29.413Z,1052.00
2023-02-11T09:53:29.396Z,1140.00
2023-02-11T09:54:29.408Z,1176.00
2023-02-11T09:55:29.371Z,1180.00
2023-02-11T09:56:29.356Z,1228.00
2023-02-11T09:57:29.451Z,1184.00
2023-02-11T09:58:29.338Z,1196.00
2023-02-11T09:59:29.336Z,1264.00
2023-02-11T10:00:29.328Z,1204.00
2023-02-11T10:01:29.321Z,1224.00
2023-02-11T10:02:29.286Z,1296.00
2023-02-11T10:03:29.295Z,1228.00
2023-02-11T10:04:29.285Z,1200.00
2023-02-11T10:05:29.248Z,1192.00
2023-02-11T10:06:29.245Z,1280.00
2023-02-11T10:07:29.217Z,1272.00
2023-02-11T10:08:29.215Z,1276.00
2023-02-11T10:09:29.220Z,1252.00
2023-02-11T10:10:29.186Z,1216.00
2023-02-11T10:11:31.926Z,1168.00
2023-02-11T10:12:29.157Z,1128.00
2023-02-11T10:13:29.151Z,1068.00
2023-02-11T10:14:29.146Z,1000.00
2023-02-11T10:15:29.130Z,1008.00
2023-02-11T10:16:29.115Z,1084.00
2023-02-11T10:17:29.091Z,1180.00
2023-02-11T10:18:29.088Z,1144.00
2023-02-11T10:19:29.083Z,1176.00
2023-02-11T10:20:29.075Z,1196.00
2023-02-11T10:21:29.044Z,1144.00
2023-02-11T10:22:29.037Z,1104.00
2023-02-11T10:23:29.015Z,1116.00
2023-02-11T10:24:29.024Z,1156.00
2023-02-11T10:25:28.989Z,1144.00
2023-02-11T10:26:29.009Z,1132.00
2023-02-11T10:27:28.964Z,1180.00
2023-02-11T10:28:29.025Z,1148.00
2023-02-11T10:29:28.945Z,1240.00
2023-02-11T10:30:28.966Z,1128.00
2023-02-11T10:31:29.098Z,1076.00
2023-02-11T10:32:28.903Z,1064.00
2023-02-11T10:33:28.894Z,1156.00
2023-02-11T10:34:28.894Z,1240.00
2023-02-11T10:35:28.852Z,1204.00
2023-02-11T10:36:28.844Z,1176.00
2023-02-11T10:37:28.834Z,1204.00
2023-02-11T10:38:28.826Z,1232.00
2023-02-11T10:39:28.822Z,1364.00
2023-02-11T10:40:28.813Z,1484.00
2023-02-11T10:41:28.783Z,1532.00
2023-02-11T10:42:28.790Z,1476.00
2023-02-11T10:43:28.761Z,1392.00
2023-02-11T10:44:28.750Z,1352.00
2023-02-11T10:45:28.749Z,1348.00
2023-02-11T10:46:28.749Z,1420.00
2023-02-11T10:47:28.712Z,1480.00
2023-02-11T10:48:28.694Z,1540.00
2023-02-11T10:49:28.673Z,1512.00
2023-02-11T10:50:28.674Z,1584.00
2023-02-11T10:51:28.642Z,1536.00
2023-02-11T10:52:28.644Z,1424.00
2023-02-11T10:53:28.633Z,1408.00
2023-02-11T10:54:28.622Z,1456.00
2023-02-11T10:55:28.601Z,1536.00
2023-02-11T10:56:28.590Z,1504.00
2023-02-11T10:57:28.577Z,1480.00
2023-02-11T10:58:28.577Z,1460.00
2023-02-11T10:59:28.550Z,1484.00
2023-02-11T11:00:28.556Z,1380.00
2023-02-11T11:01:28.556Z,1416.00
2023-02-11T11:02:28.513Z,1424.00
2023-02-11T11:03:28.511Z,1336.00
2023-02-11T11:04:28.522Z,1324.00
2023-02-11T11:05:28.498Z,1220.00
2023-02-11T11:06:28.462Z,1248.00
2023-02-11T11:07:28.477Z,1220.00
2023-02-11T11:08:28.445Z,1240.00
2023-02-11T11:09:28.422Z,1276.00
2023-02-11T11:10:28.435Z,1272.00
2023-02-11T11:11:28.406Z,1280.00
2023-02-11T11:12:28.402Z,1220.00
2023-02-11T11:13:28.378Z,1300.00
2023-02-11T11:14:28.357Z,1308.00
2023-02-11T11:15:28.380Z,1344.00
2023-02-11T11:16:28.399Z,1364.00
2023-02-11T11:17:28.325Z,1320.00
2023-02-11T11:18:28.306Z,1336.00
2023-02-11T11:19:28.297Z,1312.00
2023-02-11T11:20:28.305Z,1408.00
2023-02-11T11:21:28.277Z,1460.00
2023-02-11T11:22:28.247Z,1532.00
2023-02-11T11:23:28.258Z,1592.00
2023-02-11T11:24:28.228Z,1700.00
2023-02-11T11:25:28.241Z,1656.00
2023-02-11T11:26:28.214Z,1616.00
2023-02-11T11:27:28.198Z,1504.00
2023-02-11T11:28:28.255Z,1628.00
2023-02-11T11:29:28.165Z,1592.00
2023-02-11T11:30:28.195Z,1552.00
2023-02-11T11:31:28.298Z,1528.00
2023-02-11T11:32:28.127Z,1572.00
2023-02-11T11:33:28.116Z,1848.00
2023-02-11T11:34:28.094Z,1808.00
2023-02-11T11:35:28.110Z,1832.00
2023-02-11T11:36:28.079Z,1884.00
2023-02-11T11:37:28.073Z,1764.00
2023-02-11T11:38:28.059Z,1868.00
2023-02-11T11:39:28.034Z,1924.00
2023-02-11T11:40:28.026Z,1832.00
2023-02-11T11:41:28.032Z,1780.00
2023-02-11T11:42:27.988Z,1720.00
2023-02-11T11:43:27.981Z,1720.00
2023-02-11T11:44:27.960Z,1676.00
2023-02-11T11:45:27.971Z,1680.00
2023-02-11T11:46:27.965Z,1700.00
2023-02-11T11:47:27.929Z,1676.00
2023-02-11T11:48:27.906Z,1580.00
2023-02-11T11:49:27.896Z,1448.00
2023-02-11T11:50:27.915Z,1392.00
2023-02-11T11:51:27.886Z,1420.00
2023-02-11T11:52:27.860Z,1424.00
2023-02-11T11:53:27.854Z,1404.00
2023-02-11T11:54:27.837Z,1400.00
2023-02-11T11:55:27.836Z,1340.00
2023-02-11T11:56:27.816Z,1372.00
2023-02-11T11:57:27.811Z,1412.00
2023-02-11T11:58:27.775Z,1528.00
2023-02-11T11:59:27.777Z,1608.00
2023-02-11T12:00:27.761Z,1720.00
2023-02-11T12:01:27.762Z,1892.00
2023-02-11T12:02:27.796Z,1980.00
2023-02-11T12:03:27.804Z,2088.00
2023-02-11T12:04:27.742Z,2112.00
2023-02-11T12:05:27.694Z,1984.00
2023-02-11T12:06:27.696Z,2032.00
2023-02-11T12:07:27.678Z,2056.00
2023-02-11T12:08:27.654Z,2108.00
2023-02-11T12:09:27.648Z,2376.00
2023-02-11T12:10:27.622Z,2376.00
2023-02-11T12:11:27.640Z,2424.00
2023-02-11T12:12:27.602Z,2220.00
2023-02-11T12:13:27.601Z,2072.00
2023-02-11T12:14:27.583Z,1896.00
2023-02-11T12:15:27.563Z,1896.00
2023-02-11T12:16:27.616Z,1660.00
2023-02-11T12:17:27.541Z,1412.00
2023-02-11T12:18:27.521Z,1168.00
2023-02-11T12:19:27.521Z,1128.00
2023-02-11T12:20:27.511Z,1184.00
2023-02-11T12:21:27.492Z,1144.00
2023-02-11T12:22:27.470Z,1156.00
2023-02-11T12:23:27.463Z,1260.00
2023-02-11T12:24:27.464Z,1332.00
2023-02-11T12:25:27.430Z,1528.00
2023-02-11T12:26:27.430Z,1632.00
2023-02-11T12:27:27.426Z,1704.00
2023-02-11T12:28:27.445Z,1700.00
2023-02-11T12:29:27.406Z,1616.00
2023-02-11T12:30:27.479Z,1532.00
2023-02-11T12:31:27.446Z,1372.00
2023-02-11T12:32:27.341Z,1748.00
2023-02-11T12:33:27.356Z,1764.00
2023-02-11T12:34:27.319Z,1752.00
2023-02-11T12:35:27.309Z,1736.00
2023-02-11T12:36:27.312Z,1736.00
2023-02-11T12:37:27.290Z,1808.00
2023-02-11T12:38:27.279Z,1860.00
2023-02-11T12:39:27.263Z,1844.00
2023-02-11T12:40:27.271Z,1792.00
2023-02-11T12:41:27.244Z,1788.00
2023-02-11T12:42:27.211Z,1700.00
2023-02-11T12:43:27.201Z,1628.00
2023-02-11T12:44:27.180Z,1788.00
2023-02-11T12:45:27.216Z,1760.00
2023-02-11T12:46:27.180Z,1868.00
2023-02-11T12:47:27.170Z,1864.00
2023-02-11T12:48:27.129Z,1916.00
2023-02-11T12:49:27.130Z,1972.00
2023-02-11T12:50:27.113Z,1872.00
2023-02-11T12:51:27.131Z,1892.00
2023-02-11T12:52:27.088Z,1884.00
2023-02-11T12:53:27.076Z,1952.00
2023-02-11T12:54:27.073Z,1972.00
2023-02-11T12:55:27.056Z,1896.00
2023-02-11T12:56:27.052Z,1880.00
2023-02-11T12:57:27.059Z,1880.00
2023-02-11T12:58:35.559Z,1788.00
2023-02-11T12:59:28.000Z,1628.00
2023-02-11T13:00:26.987Z,1504.00
2023-02-11T13:01:27.063Z,1400.00
2023-02-11T13:02:27.037Z,1380.00
2023-02-11T13:03:26.948Z,1384.00
2023-02-11T13:04:26.929Z,1404.00
2023-02-11T13:05:26.920Z,1412.00
2023-02-11T13:06:26.911Z,1436.00
2023-02-11T13:07:26.912Z,1444.00
2023-02-11T13:08:26.885Z,1444.00
2023-02-11T13:09:26.877Z,1484.00
2023-02-11T13:10:26.861Z,1568.00
2023-02-11T13:11:26.850Z,1652.00
2023-02-11T13:12:26.851Z,1640.00
2023-02-11T13:13:26.823Z,1692.00
2023-02-11T13:14:26.809Z,1744.00
2023-02-11T13:15:26.833Z,1792.00
2023-02-11T13:16:26.817Z,1916.00
2023-02-11T13:17:26.788Z,1928.00
2023-02-11T13:18:26.769Z,1984.00
2023-02-11T13:19:26.772Z,2020.00
2023-02-11T13:20:26.728Z,1972.00
2023-02-11T13:21:26.730Z,2008.00
2023-02-11T13:22:26.718Z,2048.00
2023-02-11T13:23:26.703Z,2000.00
2023-02-11T13:24:26.685Z,1856.00
2023-02-11T13:25:26.660Z,1756.00
2023-02-11T13:26:26.659Z,1760.00
2023-02-11T13:27:26.651Z,1708.00
2023-02-11T13:28:26.711Z,1688.00
2023-02-11T13:29:26.610Z,1720.00
2023-02-11T13:30:26.770Z,1740.00
2023-02-11T13:31:26.743Z,1780.00
2023-02-11T13:32:26.601Z,1888.00
2023-02-11T13:33:26.598Z,2044.00
2023-02-11T13:34:26.597Z,2220.00
2023-02-11T13:35:26.590Z,1884.00
2023-02-11T13:36:26.586Z,1660.00
2023-02-11T13:37:26.588Z,1668.00
2023-02-11T13:38:26.560Z,1688.00
2023-02-11T13:39:26.486Z,1764.00
2023-02-11T13:40:26.468Z,1804.00
2023-02-11T13:41:26.454Z,1672.00
2023-02-11T13:42:26.453Z,1660.00
2023-02-11T13:43:26.427Z,1792.00
2023-02-11T13:44:26.414Z,1896.00
2023-02-11T13:45:26.402Z,1916.00
2023-02-11T13:46:26.440Z,1856.00
2023-02-11T13:47:26.401Z,1692.00
2023-02-11T13:48:26.363Z,1644.00
2023-02-11T13:49:26.357Z,1604.00
2023-02-11T13:50:26.341Z,1672.00
2023-02-11T13:51:26.326Z,1848.00
2023-02-11T13:52:26.320Z,1988.00
2023-02-11T13:53:26.309Z,2136.00
2023-02-11T13:54:26.280Z,2220.00
2023-02-11T13:55:26.261Z,2256.00
2023-02-11T13:56:26.261Z,2064.00
2023-02-11T13:57:26.272Z,1928.00
2023-02-11T13:58:26.241Z,1752.00
2023-02-11T13:59:26.211Z,1704.00
2023-02-11T14:00:26.207Z,1764.00
2023-02-11T14:01:26.253Z,1784.00
2023-02-11T14:02:26.203Z,1824.00
2023-02-11T14:03:26.181Z,1964.00
2023-02-11T14:04:26.169Z,1908.00
2023-02-11T14:05:26.139Z,1812.00
2023-02-11T14:06:26.145Z,1784.00
2023-02-11T14:07:26.149Z,1652.00
2023-02-11T14:08:26.165Z,1600.00
2023-02-11T14:09:26.078Z,1700.00
2023-02-11T14:11:19.484Z,1828.00
2023-02-11T14:12:19.468Z,1996.00
2023-02-11T14:13:19.474Z,2080.00
2023-02-11T14:14:19.439Z,2100.00
2023-02-11T14:15:19.428Z,2076.00
2023-02-11T14:16:35.307Z,1816.00
2023-02-11T14:17:20.429Z,1848.00
2023-02-11T14:18:19.397Z,1852.00
2023-02-11T14:19:19.370Z,1996.00
2023-02-11T14:20:19.363Z,2208.00
2023-02-11T14:21:19.351Z,2476.00
2023-02-11T14:22:19.332Z,2700.00
2023-02-11T14:23:19.327Z,2508.00
2023-02-11T14:24:19.300Z,2504.00
2023-02-11T14:25:19.294Z,2892.00
2023-02-11T14:26:20.040Z,4032.00
2023-02-11T14:27:19.267Z,4708.00
2023-02-11T14:28:19.287Z,5500.00
2023-02-11T14:29:19.255Z,5488.00
2023-02-11T14:30:19.226Z,4768.00
2023-02-11T14:31:19.308Z,4812.00
2023-02-11T14:32:19.200Z,4996.00
2023-02-11T14:33:19.205Z,5932.00
2023-02-11T14:34:19.189Z,6144.00
2023-02-11T14:35:19.158Z,4500.00
2023-02-11T14:36:19.147Z,3548.00
2023-02-11T14:37:19.141Z,2992.00
2023-02-11T14:38:19.146Z,2412.00
2023-02-11T14:39:19.119Z,2228.00
2023-02-11T14:40:19.103Z,2628.00
2023-02-11T14:41:19.086Z,2704.00
2023-02-11T14:42:19.067Z,2580.00
2023-02-11T14:43:19.104Z,2464.00
2023-02-11T14:44:19.041Z,2252.00
2023-02-11T14:45:19.042Z,1920.00
2023-02-11T14:46:19.112Z,1592.00
2023-02-11T14:47:19.017Z,1436.00
2023-02-11T14:48:19.008Z,1516.00
2023-02-11T14:49:18.986Z,1620.00
2023-02-11T14:50:18.966Z,1592.00
2023-02-11T14:51:18.955Z,1472.00
2023-02-11T14:52:18.935Z,1644.00
2023-02-11T14:53:18.938Z,1856.00
2023-02-11T14:54:18.926Z,1748.00
2023-02-11T14:55:18.913Z,1808.00
2023-02-11T14:56:18.884Z,1640.00
2023-02-11T14:57:18.874Z,1764.00
2023-02-11T14:58:18.882Z,2100.00
2023-02-11T14:59:18.853Z,2040.00
2023-02-11T15:00:18.887Z,2152.00
2023-02-11T15:01:18.855Z,2320.00
2023-02-11T15:02:18.829Z,2712.00
2023-02-11T15:03:18.806Z,2692.00
2023-02-11T15:04:18.793Z,2544.00
2023-02-11T15:05:18.774Z,2616.00
2023-02-11T15:06:18.772Z,2956.00
2023-02-11T15:07:18.751Z,3164.00
2023-02-11T15:08:18.737Z,3672.00
2023-02-11T15:09:18.793Z,4488.00
2023-02-11T15:10:18.705Z,4720.00
2023-02-11T15:11:18.706Z,5156.00
2023-02-11T15:12:18.687Z,5216.00
2023-02-11T15:13:18.675Z,4600.00
2023-02-11T15:14:18.684Z,4208.00
2023-02-11T15:15:18.642Z,4036.00
2023-02-11T15:16:18.701Z,3784.00
2023-02-11T15:17:18.626Z,3572.00
2023-02-11T15:18:18.605Z,3204.00
2023-02-11T15:19:18.604Z,2904.00
2023-02-11T15:20:18.574Z,2632.00
2023-02-11T15:21:18.568Z,2200.00
2023-02-11T15:22:18.563Z,1856.00
2023-02-11T15:23:18.540Z,1752.00
2023-02-11T15:24:18.540Z,1712.00
2023-02-11T15:25:18.523Z,1884.00
2023-02-11T15:26:18.492Z,2076.00
2023-02-11T15:27:18.565Z,1924.00
2023-02-11T15:28:18.517Z,1756.00
2023-02-11T15:29:18.488Z,1520.00
2023-02-11T15:30:18.454Z,1316.00
2023-02-11T15:31:18.524Z,1112.00
2023-02-11T15:32:18.590Z,1084.00
2023-02-11T15:33:18.414Z,1228.00
2023-02-11T15:34:18.410Z,1640.00
2023-02-11T15:35:18.400Z,1832.00
2023-02-11T15:36:18.378Z,2040.00
2023-02-11T15:37:18.362Z,2240.00
2023-02-11T15:38:18.344Z,2440.00
2023-02-11T15:39:18.352Z,2360.00
2023-02-11T15:40:18.319Z,2292.00
2023-02-11T15:41:18.324Z,2060.00
2023-02-11T15:42:18.309Z,1936.00
2023-02-11T15:43:18.291Z,1736.00
2023-02-11T15:44:18.292Z,1620.00
2023-02-11T15:45:18.260Z,1556.00
2023-02-11T15:46:18.308Z,1312.00
2023-02-11T15:47:18.234Z,1036.00
2023-02-11T15:48:18.225Z,868.00
2023-02-11T15:49:18.220Z,788.00
2023-02-11T15:50:18.188Z,748.00
2023-02-11T15:51:18.180Z,708.00
2023-02-11T15:52:18.168Z,668.00
2023-02-11T15:53:18.180Z,652.00
2023-02-11T15:54:18.157Z,612.00
2023-02-11T15:55:18.128Z,604.00
2023-02-11T15:56:18.126Z,580.00
2023-02-11T15:57:18.127Z,604.00
2023-02-11T15:58:18.096Z,636.00
2023-02-11T15:59:18.088Z,660.00
2023-02-11T16:00:18.070Z,688.00
2023-02-11T16:01:18.070Z,696.00
2023-02-11T16:02:18.039Z,664.00
2023-02-11T16:03:18.028Z,608.00
2023-02-11T16:04:18.095Z,572.00
2023-02-11T16:05:17.997Z,552.00
2023-02-11T16:06:17.977Z,540.00
2023-02-11T16:07:17.977Z,548.00
2023-02-11T16:08:17.956Z,584.00
2023-02-11T16:09:17.936Z,600.00
2023-02-11T16:10:17.937Z,636.00
2023-02-11T16:11:17.916Z,708.00
2023-02-11T16:12:17.905Z,712.00
2023-02-11T16:13:17.896Z,680.00
2023-02-11T16:14:17.876Z,664.00
2023-02-11T16:15:17.885Z,636.00
2023-02-11T16:16:17.901Z,576.00
2023-02-11T16:17:17.843Z,508.00
2023-02-11T16:18:17.825Z,452.00
2023-02-11T16:19:17.814Z,412.00
2023-02-11T16:20:17.809Z,388.00
2023-02-11T16:21:17.820Z,372.00
2023-02-11T16:22:17.764Z,372.00
2023-02-11T16:23:17.765Z,376.00
2023-02-11T16:24:17.746Z,360.00
2023-02-11T16:25:19.034Z,340.00
2023-02-11T16:26:17.726Z,316.00
2023-02-11T16:27:17.705Z,280.00
2023-02-11T16:28:17.707Z,232.00
2023-02-11T16:29:17.696Z,200.00
2023-02-11T16:30:17.674Z,176.00
2023-02-11T16:31:17.786Z,160.00
2023-02-11T16:32:17.640Z,148.00
2023-02-11T16:33:17.640Z,120.00
2023-02-11T16:34:17.612Z,104.00
2023-02-11T16:35:17.613Z,96.00
2023-02-11T16:36:17.593Z,92.00
2023-02-11T16:37:17.573Z,88.00
2023-02-11T16:38:17.555Z,80.00
2023-02-11T16:39:17.567Z,76.00
2023-02-11T16:40:17.542Z,60.00
2023-02-11T16:41:17.522Z,52.00
2023-02-11T16:42:17.503Z,44.00
2023-02-11T16:43:17.500Z,32.00
2023-02-11T16:44:17.480Z,24.00
2023-02-11T16:45:17.491Z,20.00
2023-02-11T16:46:17.493Z,20.00
2023-02-11T16:47:17.458Z,16.00
2023-02-11T16:48:17.423Z,20.00
2023-02-11T16:49:17.431Z,16.00
2023-02-11T16:50:17.415Z,12.00
2023-02-11T16:51:17.394Z,12.00
2023-02-11T16:52:17.386Z,12.00
2023-02-11T16:53:17.361Z,8.00
2023-02-11T16:54:17.345Z,4.00
2023-02-11T16:55:17.343Z,4.00
2023-02-11T16:56:17.319Z,4.00
2023-02-11T16:57:17.319Z,0.00
2023-02-11T16:58:17.289Z,4.00
2023-02-11T16:59:17.309Z,4.00
2023-02-11T17:00:17.282Z,4.00
2023-02-11T17:01:17.351Z,0.00
2023-02-11T17:02:17.238Z,4.00
2023-02-11T17:03:17.232Z,4.00
2023-02-11T17:04:17.283Z,0.00
2023-02-11T17:05:17.207Z,4.00
2023-02-11T17:06:17.181Z,0.00
2023-02-11T17:07:17.167Z,0.00
2023-02-11T17:08:17.156Z,0.00
2023-02-11T17:09:17.146Z,0.00
2023-02-11T17:10:17.136Z,0.00
2023-02-11T17:11:17.115Z,0.00
2023-02-11T17:12:17.104Z,0.00
2023-02-11T17:13:17.096Z,0.00
2023-02-11T17:14:17.085Z,0.00
2023-02-11T17:15:17.066Z,0.00
2023-02-11T17:16:17.121Z,0.00
2023-02-11T17:17:17.042Z,0.00
2023-02-11T17:18:17.032Z,0.00
2023-02-11T17:19:17.016Z,0.00
2023-02-11T17:20:17.020Z,0.00
2023-02-11T17:21:16.984Z,0.00
2023-02-11T17:22:17.001Z,0.00
2023-02-11T17:23:16.955Z,0.00
2023-02-11T17:24:16.961Z,0.00
2023-02-11T17:25:16.938Z,0.00
2023-02-11T17:26:16.934Z,0.00
2023-02-11T17:27:16.900Z,0.00
2023-02-11T17:28:16.961Z,0.00
2023-02-11T17:29:16.888Z,0.00
2023-02-11T17:30:16.889Z,0.00
2023-02-11T17:31:17.022Z,0.00
2023-02-11T17:32:16.907Z,0.00
2023-02-11T17:33:16.820Z,0.00
2023-02-11T17:34:16.864Z,0.00
2023-02-11T17:35:16.799Z,0.00
2023-02-11T17:36:16.798Z,0.00
2023-02-11T17:37:16.779Z,0.00
2023-02-11T17:38:16.762Z,0.00
2023-02-11T17:39:16.754Z,0.00
2023-02-11T17:40:16.758Z,0.00
2023-02-11T17:41:16.738Z,0.00